Wednesday, September 17, 2014
01:38 UTC
  |  Log In   |  Register Free
Airport Search:

Madison Airport
(I39)

Madison Airport Diagram
No Airport Diagram Available

FAA data valid effective July 24, 2014 until September 18, 2014 (unless otherwise noted).

 
 
 
 
 
 
 
 
 
 
 
 
 
 

Current Aviation Weather for Madison Airport (I39)

METAR data is unavailable for I39. The nearest METAR location is at KDVK (21 nm SW from I39).

The most recent METAR observation for KDVK was updated at: 0111
METAR Summary (Translated METAR)
KDVK
170055Z AUTO 03006KT 10SM SCT023 OVC035 15/13 A3009 RMK AO2
(21 nm SW from I39)
KLEX
170054Z 03006KT 10SM CLR 14/12 A3009 RMK AO2 SLP187 T01440117
(27.6 nm NW from I39)
TAF Summary (Translated TAF)
KLEX
(28.6 nm NE from KDVK)
161843Z 1619/1718 01006KT P6SM SCT025 BKN035 FM162000 02006KT P6SM SCT035 FM170100 VRB03KT P6SM SKC FM170900 VRB02KT 4SM BR SKC FM171300 VRB04KT P6SM FEW050
  Airport Weather Conditions for I39

Current weather conditions are
not available for I39


The nearest NOAA weather station
is at DVK, (21 nm SW from I39)
  
 Current Weather at DVK
59° F
Overcast
Northeast winds at 6.9 mph
DVK NOAA Radar

Pressure: 30.09 in
Humidity: 88%
Wind: Northeast at 6.9 MPH (6 KT)
Dew Point: 55.4°F
Visibility: 10.00 mi


Airport Weather Forecast for I39

Translated METAR and TAF for KDVK
Translated METAR for KDVK (0132 UTC 17 September 2014)
found at http://aviationweather.gov/adds/metars/
 
METAR text: KDVK 170115Z AUTO 03004KT 10SM SCT035 14/12 A3010 RMK AO2
Conditions at: KDVK (DANVILLE , KY, US) observed 0115 UTC 17 September 2014
Temperature: 14.0°C (57°F)
Dewpoint: 12.0°C (54°F) [RH = 88%]
Pressure (altimeter): 30.10 inches Hg (1019.4 mb)
Winds: from the NNE (30 degrees) at 5 MPH (4 knots; 2.1 m/s)
Visibility: 10 or more miles (16+ km)
Ceiling: at least 12,000 feet AGL
Clouds: scattered clouds at 3500 feet AGL
Weather: automated observation with no human augmentation;
there may or may not be significant weather present at this time
Translated TAF for KDVK

There is no translated TAF available for this airport

Find All Airport Services Find A Hotel Find A Rental Car Find A Golf Course Find A Restaurant $100 Hamburger



FBO's on the Field
FBO Company Facility Photos Services Transportation Aviation Fuel Prices: Prices include tax
Catering Weather Repair Courtesy Rental Type 100LL JetA JetA+ MOGAS 8087
 
Eastern Kentucky University

This FBO has not yet been rated
FS:Shell
Last Updated: Aug-29
Login to update fuel prices
SS:
Contact Eastern Kentucky UniversityMore FBO Information
 
Add another FBO Facility Photos Catering Weather Repair Courtesy Rental Type 100LL JetA JetA+ MOGAS 8087
Services Transportation Aviation Fuel Prices: Prices include tax


model-print
model-print
model-print
model-print